地図

経路データ

SID SEASON NUMBER BASIN SUBBASIN NAME ISO_TIME NATURE LAT LON WMO_WIND WMO_PRES WMO_AGENCY TRACK_TYPE DIST2LAND LANDFALL IFLAG USA_AGENCY USA_ATCF_ID USA_LAT USA_LON USA_RECORD USA_STATUS USA_WIND USA_PRES USA_SSHS USA_R34_NE USA_R34_SE USA_R34_SW USA_R34_NW USA_R50_NE USA_R50_SE USA_R50_SW USA_R50_NW USA_R64_NE USA_R64_SE USA_R64_SW USA_R64_NW USA_POCI USA_ROCI USA_RMW USA_EYE TOKYO_LAT TOKYO_LON TOKYO_GRADE TOKYO_WIND TOKYO_PRES TOKYO_R50_DIR TOKYO_R50_LONG TOKYO_R50_SHORT TOKYO_R30_DIR TOKYO_R30_LONG TOKYO_R30_SHORT TOKYO_LAND CMA_LAT CMA_LON CMA_CAT CMA_WIND CMA_PRES HKO_LAT HKO_LON HKO_CAT HKO_WIND HKO_PRES NEWDELHI_LAT NEWDELHI_LON NEWDELHI_GRADE NEWDELHI_WIND NEWDELHI_PRES NEWDELHI_CI NEWDELHI_DP NEWDELHI_POCI REUNION_LAT REUNION_LON REUNION_TYPE REUNION_WIND REUNION_PRES REUNION_TNUM REUNION_CI REUNION_RMW REUNION_R34_NE REUNION_R34_SE REUNION_R34_SW REUNION_R34_NW REUNION_R50_NE REUNION_R50_SE REUNION_R50_SW REUNION_R50_NW REUNION_R64_NE REUNION_R64_SE REUNION_R64_SW REUNION_R64_NW BOM_LAT BOM_LON BOM_TYPE BOM_WIND BOM_PRES BOM_TNUM BOM_CI BOM_RMW BOM_R34_NE BOM_R34_SE BOM_R34_SW BOM_R34_NW BOM_R50_NE BOM_R50_SE BOM_R50_SW BOM_R50_NW BOM_R64_NE BOM_R64_SE BOM_R64_SW BOM_R64_NW BOM_ROCI BOM_POCI BOM_EYE BOM_POS_METHOD BOM_PRES_METHOD NADI_LAT NADI_LON NADI_CAT NADI_WIND NADI_PRES WELLINGTON_LAT WELLINGTON_LON WELLINGTON_WIND WELLINGTON_PRES DS824_LAT DS824_LON DS824_STAGE DS824_WIND DS824_PRES TD9636_LAT TD9636_LON TD9636_STAGE TD9636_WIND TD9636_PRES TD9635_LAT TD9635_LON TD9635_WIND TD9635_PRES TD9635_ROCI NEUMANN_LAT NEUMANN_LON NEUMANN_CLASS NEUMANN_WIND NEUMANN_PRES MLC_LAT MLC_LON MLC_CLASS MLC_WIND MLC_PRES USA_GUST BOM_GUST BOM_GUST_PER REUNION_GUST REUNION_GUST_PER USA_SEAHGT USA_SEARAD_NE USA_SEARAD_SE USA_SEARAD_SW USA_SEARAD_NW STORM_SPEED STORM_DIR
1897355S11062 1898 52 SI MM NOT_NAMED 1897-12-21 06:00:00 NR -11.0000 61.7000 spur-split 1104 1053 __________O___ -1 -11.0000 61.7000 7 12 243
1897355S11062 1898 52 SI MM NOT_NAMED 1897-12-21 09:00:00 NR -11.2711 61.1663 spur-split 1053 1014 __________P___ -1 -11.2711 61.1663 7 12 243
1897355S11062 1898 52 SI MM NOT_NAMED 1897-12-21 12:00:00 NR -11.5433 60.6357 spur-split 1011 963 __________P___ -1 -11.5433 60.6357 7 12 242
1897355S11062 1898 52 SI MM NOT_NAMED 1897-12-21 15:00:00 NR -11.8189 60.1123 spur-split 963 918 __________P___ -1 -11.8189 60.1123 7 12 241
1897355S11062 1898 52 SI MM NOT_NAMED 1897-12-21 18:00:00 NR -12.1000 59.6000 spur-split 918 874 __________O___ -1 -12.1000 59.6000 7 11 240
1897355S11062 1898 52 SI MM NOT_NAMED 1897-12-21 21:00:00 NR -12.3885 59.1022 spur-split 874 833 __________P___ -1 -12.3885 59.1022 7 11 239
1897355S11062 1898 52 SI MM NOT_NAMED 1897-12-22 00:00:00 NR -12.6847 58.6196 spur-split 833 796 __________P___ -1 -12.6847 58.6196 7 11 237
1897355S11062 1898 52 SI MM NOT_NAMED 1897-12-22 03:00:00 NR -12.9885 58.1522 spur-split 796 760 __________P___ -1 -12.9885 58.1522 7 11 236
1897355S11062 1898 52 SI MM NOT_NAMED 1897-12-22 06:00:00 NR -13.3000 57.7000 spur-split 760 727 __________O___ -1 -13.3000 57.7000 7 11 234
1897355S11062 1898 52 SI MM NOT_NAMED 1897-12-22 09:00:00 NR -13.6174 57.2683 spur-split 727 695 __________P___ -1 -13.6174 57.2683 7 11 232
1897355S11062 1898 52 SI MM NOT_NAMED 1897-12-22 12:00:00 NR -13.9419 56.8493 spur-split 693 653 __________P___ -1 -13.9419 56.8493 7 10 231
1897355S11062 1898 52 SI MM NOT_NAMED 1897-12-22 15:00:00 NR -14.2705 56.4307 spur-split 642 595 __________P___ -1 -14.2705 56.4307 7 11 231
1897355S11062 1898 52 SI MM NOT_NAMED 1897-12-22 18:00:00 NR -14.6000 56.0000 spur-split 595 538 __________O___ -1 -14.6000 56.0000 7 11 233
1897355S11062 1898 52 SI MM NOT_NAMED 1897-12-22 21:00:00 NR -14.9332 55.5191 spur-split 538 493 __________P___ -1 -14.9332 55.5191 7 12 235
1897355S11062 1898 52 SI MM NOT_NAMED 1897-12-23 00:00:00 NR -15.2652 55.0276 spur-split 482 439 __________P___ -1 -15.2652 55.0276 7 11 235
1897355S11062 1898 52 SI MM NOT_NAMED 1897-12-23 03:00:00 NR -15.5895 54.5473 spur-split 429 389 __________P___ -1 -15.5895 54.5473 7 11 235
1897355S11062 1898 52 SI MM NOT_NAMED 1897-12-23 06:00:00 NR -15.9000 54.1000 spur-split 389 354 __________O___ -1 -15.9000 54.1000 7 10 233
1897355S11062 1898 52 SI MM NOT_NAMED 1897-12-23 09:00:00 NR -16.1889 53.7134 spur-split 354 329 __________P___ -1 -16.1889 53.7134 7 9 231
1897355S11062 1898 52 SI MM NOT_NAMED 1897-12-23 12:00:00 NR -16.4643 53.3617 spur-split 333 303 __________P___ -1 -16.4643 53.3617 7 9 230
1897355S11062 1898 52 SI MM NOT_NAMED 1897-12-23 15:00:00 NR -16.7327 53.0291 spur-split 303 289 __________P___ -1 -16.7327 53.0291 7 8 230
1897355S11062 1898 52 SI MM NOT_NAMED 1897-12-23 18:00:00 NR -17.0000 52.7000 spur-split 289 270 __________O___ -1 -17.0000 52.7000 7 9 231
1897355S11062 1898 52 SI MM NOT_NAMED 1897-12-23 21:00:00 NR -17.2628 52.3335 spur-split 266 246 __________P___ -1 -17.2628 52.3335 7 9 233
1897355S11062 1898 52 SI MM NOT_NAMED 1897-12-24 00:00:00 NR -17.5275 51.9697 spur-split 246 221 __________P___ -1 -17.5275 51.9697 7 9 232
1897355S11062 1898 52 SI MM NOT_NAMED 1897-12-24 03:00:00 NR -17.8035 51.6210 spur-split 221 195 __________P___ -1 -17.8035 51.6210 7 9 228
1897355S11062 1898 52 SI MM NOT_NAMED 1897-12-24 06:00:00 NR -18.1000 51.3000 spur-split 195 169 __________O___ -1 -18.1000 51.3000 7 9 225
1897355S11062 1898 52 SI MM NOT_NAMED 1897-12-24 09:00:00 NR -18.4244 50.9609 spur-split 170 148 __________P___ -1 -18.4244 50.9609 7 9 222
1897355S11062 1898 52 SI MM NOT_NAMED 1897-12-24 12:00:00 NR -18.7700 50.6585 spur-split 152 133 __________P___ -1 -18.7700 50.6585 7 9 216
1897355S11062 1898 52 SI MM NOT_NAMED 1897-12-24 15:00:00 NR -19.1306 50.4268 spur-split 133 130 __________P___ -1 -19.1306 50.4268 7 8 205
1897355S11062 1898 52 SI MM NOT_NAMED 1897-12-24 18:00:00 NR -19.5000 50.3000 spur-split 137 137 __________O___ -1 -19.5000 50.3000 7 7 189
1897355S11062 1898 52 SI MM NOT_NAMED 1897-12-24 21:00:00 NR -19.8635 50.3043 spur-split 156 156 __________P___ -1 -19.8635 50.3043 7 7 172
1897355S11062 1898 52 SI MM NOT_NAMED 1897-12-25 00:00:00 NR -20.2348 50.4142 spur-split 168 168 __________P___ -1 -20.2348 50.4142 7 8 160
1897355S11062 1898 52 SI MM NOT_NAMED 1897-12-25 03:00:00 NR -20.6137 50.5921 spur-split 199 199 __________P___ -1 -20.6137 50.5921 7 9 155
1897355S11062 1898 52 SI MM NOT_NAMED 1897-12-25 06:00:00 NR -21.0000 50.8000 spur-split 236 236 __________O___ -1 -21.0000 50.8000 7 9 156
1897355S11062 1898 52 SI MM NOT_NAMED 1897-12-25 09:00:00 NR -21.3887 50.9666 spur-split 273 273 __________P___ -1 -21.3887 50.9666 7 9 157
1897355S11062 1898 52 SI MM NOT_NAMED 1897-12-25 12:00:00 NR -21.7849 51.1555 spur-split 303 303 __________P___ -1 -21.7849 51.1555 7 9 155
1897355S11062 1898 52 SI MM NOT_NAMED 1897-12-25 15:00:00 NR -22.1886 51.3667 spur-split 332 332 __________P___ -1 -22.1886 51.3667 7 9 153
1897355S11062 1898 52 SI MM NOT_NAMED 1897-12-25 18:00:00 NR -22.6000 51.6000 spur-split 361 361 __________O___ -1 -22.6000 51.6000 7 10 152
1897355S11062 1898 52 SI MM NOT_NAMED 1897-12-25 21:00:00 NR -23.0299 51.8454 spur-split 393 393 __________P___ -1 -23.0299 51.8454 7 10 151
1897355S11062 1898 52 SI MM NOT_NAMED 1897-12-26 00:00:00 NR -23.4648 52.1127 spur-split 410 402 __________P___ -1 -23.4648 52.1127 7 10 150
1897355S11062 1898 52 SI MM NOT_NAMED 1897-12-26 03:00:00 NR -23.8924 52.3986 spur-split 415 415 __________P___ -1 -23.8924 52.3986 7 10 147
1897355S11062 1898 52 SI MM NOT_NAMED 1897-12-26 06:00:00 NR -24.3000 52.7000 spur-split 428 428 __________O___ -1 -24.3000 52.7000 7 10 144
1897355S11062 1898 52 SI MM NOT_NAMED 1897-12-26 09:00:00 NR -24.6675 53.0153 spur-split 446 441 __________P___ -1 -24.6675 53.0153 7 9 141
1897355S11062 1898 52 SI MM NOT_NAMED 1897-12-26 12:00:00 NR -25.0150 53.3433 spur-split 461 456 __________P___ -1 -25.0150 53.3433 7 9 139
1897355S11062 1898 52 SI MM NOT_NAMED 1897-12-26 15:00:00 NR -25.3550 53.6747 spur-split 486 483 __________P___ -1 -25.3550 53.6747 7 9 139
1897355S11062 1898 52 SI MM NOT_NAMED 1897-12-26 18:00:00 NR -25.7000 54.0000 spur-split 507 507 __________O___ -1 -25.7000 54.0000 7 8 142
1897355S11062 1898 52 SI MM NOT_NAMED 1897-12-26 21:00:00 NR -26.0132 54.2345 spur-split 533 530 __________P___ -1 -26.0132 54.2345 7 8 147
1897355S11062 1898 52 SI MM NOT_NAMED 1897-12-27 00:00:00 NR -26.3421 54.4724 spur-split 558 558 __________P___ -1 -26.3421 54.4724 7 9 146
1897355S11062 1898 52 SI MM NOT_NAMED 1897-12-27 03:00:00 NR -26.7250 54.7737 spur-split 597 597 __________P___ -1 -26.7250 54.7737 7 11 143
1897355S11062 1898 52 SI MM NOT_NAMED 1897-12-27 06:00:00 NR -27.2000 55.2000 spur-split 649 649 __________O___ -1 -27.2000 55.2000 7 14 141
1897355S11062 1898 52 SI MM NOT_NAMED 1897-12-27 09:00:00 NR -27.8426 55.7872 spur-split 715 715 __________P___ -1 -27.8426 55.7872 7 18 140
1897355S11062 1898 52 SI MM NOT_NAMED 1897-12-27 12:00:00 NR -28.5688 56.5144 spur-split 809 809 __________P___ -1 -28.5688 56.5144 7 20 137
1897355S11062 1898 52 SI MM NOT_NAMED 1897-12-27 15:00:00 NR -29.3104 57.3599 spur-split 900 900 __________P___ -1 -29.3104 57.3599 7 21 133
1897355S11062 1898 52 SI MM NOT_NAMED 1897-12-27 18:00:00 NR -30.0000 58.3000 spur-split 997 997 __________O___ -1 -30.0000 58.3000 7 21 127
1897355S11062 1898 52 SI MM NOT_NAMED 1897-12-27 21:00:00 NR -30.5861 59.3104 spur-split 1091 1091 __________P___ -1 -30.5861 59.3104 7 21 121
1897355S11062 1898 52 SI MM NOT_NAMED 1897-12-28 00:00:00 NR -31.0801 60.3739 spur-split 1183 1183 __________P___ -1 -31.0801 60.3739 7 21 116
1897355S11062 1898 52 SI MM NOT_NAMED 1897-12-28 03:00:00 NR -31.5089 61.4754 spur-split 1270 1270 __________P___ -1 -31.5089 61.4754 7 21 113
1897355S11062 1898 52 SI MM NOT_NAMED 1897-12-28 06:00:00 NR -31.9000 62.6000 spur-split 1362 __________O___ -1 -31.9000 62.6000 7 21 112

IBTrACS Databaseについて

本データベースは、米国NOAAが公開する1842年以降の世界の熱帯低気圧のベストトラックデータアーカイブInternational Best Track Archive for Climate Stewardship (IBTrACS)を、ウェブで閲覧しやすい形式に変換したものです。

最終更新日:2021-12-06